Aviation Digital Data Service (ADDS)

Output produced by METARs form (1311 UTC 21 February 2018)
found at http://www.aviationweather.gov/adds/metars/
 
KBID 211256Z AUTO 23016KT 1/4SM -RA FG OVC001 08/08 A3033 RMK AO2 SLP273 P0000 T00780078
KUUU 211253Z AUTO 21006KT 1/4SM FG VV002 08/08 A3029 RMK AO2 SLP258 T00830083
KOQU 211250Z 24015KT 4SM BR OVC002 13/12 A3028
KSFZ 211256Z AUTO 25008G16KT 210V290 10SM OVC007 14/13 A3026 RMK AO2 SLP191 T01440133
KPVD 211307Z 24011KT 10SM OVC010 15/14 A3027 RMK AO2 T01500139
KWST 211253Z AUTO 20004KT M1/4SM FG VV002 09/09 A3031 RMK AO2 SLP265 T00940094